sensor_id;sensor_type;location;lat;lon;timestamp;P1;durP1;ratioP1;P2;durP2;ratioP2
83929;SDS011;73959;52.130;5.584;2023-11-19T00:00:05;24.70;;;13.05;;
83929;SDS011;73959;52.130;5.584;2023-11-19T00:02:31;25.55;;;12.55;;
83929;SDS011;73959;52.130;5.584;2023-11-19T00:04:57;27.05;;;13.57;;
83929;SDS011;73959;52.130;5.584;2023-11-19T00:07:23;29.85;;;13.25;;
83929;SDS011;73959;52.130;5.584;2023-11-19T00:09:49;29.23;;;13.00;;
83929;SDS011;73959;52.130;5.584;2023-11-19T00:12:15;25.92;;;13.52;;
83929;SDS011;73959;52.130;5.584;2023-11-19T00:14:41;21.88;;;12.52;;
83929;SDS011;73959;52.130;5.584;2023-11-19T00:17:07;21.83;;;11.93;;
83929;SDS011;73959;52.130;5.584;2023-11-19T00:19:33;24.85;;;11.82;;
83929;SDS011;73959;52.130;5.584;2023-11-19T00:21:59;24.52;;;11.60;;
83929;SDS011;73959;52.130;5.584;2023-11-19T00:24:27;30.80;;;11.82;;
83929;SDS011;73959;52.130;5.584;2023-11-19T00:26:53;21.63;;;10.90;;
83929;SDS011;73959;52.130;5.584;2023-11-19T00:29:19;22.02;;;10.52;;
83929;SDS011;73959;52.130;5.584;2023-11-19T00:31:45;27.15;;;10.77;;
83929;SDS011;73959;52.130;5.584;2023-11-19T00:34:11;27.20;;;10.45;;
83929;SDS011;73959;52.130;5.584;2023-11-19T00:36:38;23.45;;;9.55;;
83929;SDS011;73959;52.130;5.584;2023-11-19T00:39:04;26.23;;;10.20;;
83929;SDS011;73959;52.130;5.584;2023-11-19T00:41:31;29.70;;;9.70;;
83929;SDS011;73959;52.130;5.584;2023-11-19T00:43:57;29.95;;;10.30;;
83929;SDS011;73959;52.130;5.584;2023-11-19T00:46:23;27.10;;;9.82;;
83929;SDS011;73959;52.130;5.584;2023-11-19T00:48:49;31.60;;;10.45;;
83929;SDS011;73959;52.130;5.584;2023-11-19T00:51:14;26.60;;;9.70;;
83929;SDS011;73959;52.130;5.584;2023-11-19T00:53:40;30.00;;;8.55;;
83929;SDS011;73959;52.130;5.584;2023-11-19T00:56:06;29.40;;;9.13;;
83929;SDS011;73959;52.130;5.584;2023-11-19T00:58:32;27.40;;;8.50;;
83929;SDS011;73959;52.130;5.584;2023-11-19T01:00:58;31.50;;;7.80;;
83929;SDS011;73959;52.130;5.584;2023-11-19T01:03:24;25.33;;;7.97;;
83929;SDS011;73959;52.130;5.584;2023-11-19T01:05:50;30.17;;;8.20;;
83929;SDS011;73959;52.130;5.584;2023-11-19T01:08:17;26.23;;;6.80;;
83929;SDS011;73959;52.130;5.584;2023-11-19T01:10:44;25.77;;;7.10;;
83929;SDS011;73959;52.130;5.584;2023-11-19T01:13:10;29.27;;;7.45;;
83929;SDS011;73959;52.130;5.584;2023-11-19T01:15:36;28.45;;;7.43;;
83929;SDS011;73959;52.130;5.584;2023-11-19T01:18:02;31.02;;;7.43;;
83929;SDS011;73959;52.130;5.584;2023-11-19T01:20:29;30.92;;;7.32;;
83929;SDS011;73959;52.130;5.584;2023-11-19T01:22:55;24.05;;;6.32;;
83929;SDS011;73959;52.130;5.584;2023-11-19T01:25:21;30.02;;;7.13;;
83929;SDS011;73959;52.130;5.584;2023-11-19T01:27:47;35.15;;;7.38;;
83929;SDS011;73959;52.130;5.584;2023-11-19T01:30:15;22.83;;;6.65;;
83929;SDS011;73959;52.130;5.584;2023-11-19T01:32:40;28.90;;;6.60;;
83929;SDS011;73959;52.130;5.584;2023-11-19T01:35:07;28.17;;;8.13;;
83929;SDS011;73959;52.130;5.584;2023-11-19T01:37:33;27.65;;;6.88;;
83929;SDS011;73959;52.130;5.584;2023-11-19T01:40:02;32.50;;;6.97;;
83929;SDS011;73959;52.130;5.584;2023-11-19T01:42:29;33.50;;;7.30;;
83929;SDS011;73959;52.130;5.584;2023-11-19T01:44:59;34.95;;;6.80;;
83929;SDS011;73959;52.130;5.584;2023-11-19T01:47:26;25.75;;;6.10;;
83929;SDS011;73959;52.130;5.584;2023-11-19T01:49:52;33.58;;;7.07;;
83929;SDS011;73959;52.130;5.584;2023-11-19T01:52:18;30.65;;;6.32;;
83929;SDS011;73959;52.130;5.584;2023-11-19T01:54:45;36.13;;;7.47;;
83929;SDS011;73959;52.130;5.584;2023-11-19T01:57:12;42.78;;;6.30;;
83929;SDS011;73959;52.130;5.584;2023-11-19T01:59:38;41.25;;;7.60;;
83929;SDS011;73959;52.130;5.584;2023-11-19T02:02:05;35.42;;;7.20;;
83929;SDS011;73959;52.130;5.584;2023-11-19T02:04:31;42.50;;;6.75;;
83929;SDS011;73959;52.130;5.584;2023-11-19T02:06:57;37.90;;;6.65;;
83929;SDS011;73959;52.130;5.584;2023-11-19T02:09:24;31.83;;;6.07;;
83929;SDS011;73959;52.130;5.584;2023-11-19T02:11:50;39.97;;;7.20;;
83929;SDS011;73959;52.130;5.584;2023-11-19T02:14:17;35.58;;;6.10;;
83929;SDS011;73959;52.130;5.584;2023-11-19T02:16:43;34.97;;;6.75;;
83929;SDS011;73959;52.130;5.584;2023-11-19T02:19:09;36.78;;;7.13;;
83929;SDS011;73959;52.130;5.584;2023-11-19T02:21:36;43.25;;;6.85;;
83929;SDS011;73959;52.130;5.584;2023-11-19T02:24:03;47.78;;;8.45;;
83929;SDS011;73959;52.130;5.584;2023-11-19T02:29:04;37.72;;;6.82;;
83929;SDS011;73959;52.130;5.584;2023-11-19T02:31:31;40.40;;;7.32;;
83929;SDS011;73959;52.130;5.584;2023-11-19T02:33:57;41.63;;;7.38;;
83929;SDS011;73959;52.130;5.584;2023-11-19T02:36:25;41.53;;;7.13;;
83929;SDS011;73959;52.130;5.584;2023-11-19T02:38:51;38.60;;;6.55;;
83929;SDS011;73959;52.130;5.584;2023-11-19T02:41:17;39.00;;;6.70;;
83929;SDS011;73959;52.130;5.584;2023-11-19T02:43:43;40.13;;;7.05;;
83929;SDS011;73959;52.130;5.584;2023-11-19T02:46:09;40.35;;;6.53;;
83929;SDS011;73959;52.130;5.584;2023-11-19T02:48:35;52.35;;;8.18;;
83929;SDS011;73959;52.130;5.584;2023-11-19T02:51:05;43.83;;;7.75;;
83929;SDS011;73959;52.130;5.584;2023-11-19T02:53:34;44.53;;;8.00;;
83929;SDS011;73959;52.130;5.584;2023-11-19T02:56:00;33.45;;;6.28;;
83929;SDS011;73959;52.130;5.584;2023-11-19T02:58:34;45.05;;;7.55;;
83929;SDS011;73959;52.130;5.584;2023-11-19T03:01:00;39.80;;;6.25;;
83929;SDS011;73959;52.130;5.584;2023-11-19T03:03:35;45.63;;;7.20;;
83929;SDS011;73959;52.130;5.584;2023-11-19T03:06:05;47.22;;;7.50;;
83929;SDS011;73959;52.130;5.584;2023-11-19T03:08:32;45.63;;;7.25;;
83929;SDS011;73959;52.130;5.584;2023-11-19T03:10:58;53.42;;;8.48;;
83929;SDS011;73959;52.130;5.584;2023-11-19T03:13:24;51.97;;;8.30;;
83929;SDS011;73959;52.130;5.584;2023-11-19T03:15:50;44.40;;;7.53;;
83929;SDS011;73959;52.130;5.584;2023-11-19T03:18:16;48.65;;;7.70;;
83929;SDS011;73959;52.130;5.584;2023-11-19T03:20:42;50.92;;;8.13;;
83929;SDS011;73959;52.130;5.584;2023-11-19T03:23:08;46.33;;;8.18;;
83929;SDS011;73959;52.130;5.584;2023-11-19T03:25:35;49.65;;;8.63;;
83929;SDS011;73959;52.130;5.584;2023-11-19T03:28:02;53.28;;;7.35;;
83929;SDS011;73959;52.130;5.584;2023-11-19T03:30:28;50.33;;;7.70;;
83929;SDS011;73959;52.130;5.584;2023-11-19T03:32:57;60.83;;;8.15;;
83929;SDS011;73959;52.130;5.584;2023-11-19T03:35:23;43.78;;;7.78;;
83929;SDS011;73959;52.130;5.584;2023-11-19T03:37:50;47.53;;;8.68;;
83929;SDS011;73959;52.130;5.584;2023-11-19T03:40:16;52.53;;;7.68;;
83929;SDS011;73959;52.130;5.584;2023-11-19T03:42:43;50.67;;;7.70;;
83929;SDS011;73959;52.130;5.584;2023-11-19T03:45:09;58.30;;;9.43;;
83929;SDS011;73959;52.130;5.584;2023-11-19T03:47:35;54.00;;;8.70;;
83929;SDS011;73959;52.130;5.584;2023-11-19T03:50:02;45.88;;;8.15;;
83929;SDS011;73959;52.130;5.584;2023-11-19T03:52:28;52.03;;;8.15;;
83929;SDS011;73959;52.130;5.584;2023-11-19T03:54:54;57.00;;;8.75;;
83929;SDS011;73959;52.130;5.584;2023-11-19T03:57:22;52.28;;;8.07;;
83929;SDS011;73959;52.130;5.584;2023-11-19T03:59:48;54.15;;;7.55;;
83929;SDS011;73959;52.130;5.584;2023-11-19T04:02:15;49.92;;;7.82;;
83929;SDS011;73959;52.130;5.584;2023-11-19T04:04:41;48.13;;;8.05;;
83929;SDS011;73959;52.130;5.584;2023-11-19T04:07:07;53.85;;;7.90;;
83929;SDS011;73959;52.130;5.584;2023-11-19T04:09:33;53.88;;;8.52;;
83929;SDS011;73959;52.130;5.584;2023-11-19T04:11:59;46.08;;;7.63;;
83929;SDS011;73959;52.130;5.584;2023-11-19T04:14:25;48.75;;;8.50;;
83929;SDS011;73959;52.130;5.584;2023-11-19T04:16:52;51.80;;;8.20;;
83929;SDS011;73959;52.130;5.584;2023-11-19T04:19:18;50.70;;;8.52;;
83929;SDS011;73959;52.130;5.584;2023-11-19T04:21:44;53.53;;;8.65;;
83929;SDS011;73959;52.130;5.584;2023-11-19T04:24:10;42.40;;;7.70;;
83929;SDS011;73959;52.130;5.584;2023-11-19T04:26:39;50.72;;;7.95;;
83929;SDS011;73959;52.130;5.584;2023-11-19T04:29:06;53.05;;;9.05;;
83929;SDS011;73959;52.130;5.584;2023-11-19T04:31:33;55.90;;;9.18;;
83929;SDS011;73959;52.130;5.584;2023-11-19T04:33:59;52.20;;;8.20;;
83929;SDS011;73959;52.130;5.584;2023-11-19T04:36:25;52.42;;;7.78;;
83929;SDS011;73959;52.130;5.584;2023-11-19T04:38:52;53.30;;;8.50;;
83929;SDS011;73959;52.130;5.584;2023-11-19T04:41:18;59.40;;;9.30;;
83929;SDS011;73959;52.130;5.584;2023-11-19T04:43:44;47.33;;;8.32;;
83929;SDS011;73959;52.130;5.584;2023-11-19T04:46:10;52.35;;;8.55;;
83929;SDS011;73959;52.130;5.584;2023-11-19T04:48:36;49.40;;;8.50;;
83929;SDS011;73959;52.130;5.584;2023-11-19T04:51:04;52.10;;;7.95;;
83929;SDS011;73959;52.130;5.584;2023-11-19T04:53:30;52.35;;;7.85;;
83929;SDS011;73959;52.130;5.584;2023-11-19T04:55:56;54.17;;;8.75;;
83929;SDS011;73959;52.130;5.584;2023-11-19T04:58:22;50.22;;;8.10;;
83929;SDS011;73959;52.130;5.584;2023-11-19T05:00:48;45.63;;;7.28;;
83929;SDS011;73959;52.130;5.584;2023-11-19T05:03:14;46.55;;;7.30;;
83929;SDS011;73959;52.130;5.584;2023-11-19T05:05:40;49.60;;;8.30;;
83929;SDS011;73959;52.130;5.584;2023-11-19T05:08:06;43.70;;;7.18;;
83929;SDS011;73959;52.130;5.584;2023-11-19T05:10:32;43.35;;;7.32;;
83929;SDS011;73959;52.130;5.584;2023-11-19T05:12:57;43.35;;;7.50;;
83929;SDS011;73959;52.130;5.584;2023-11-19T05:15:23;55.42;;;9.07;;
83929;SDS011;73959;52.130;5.584;2023-11-19T05:17:49;51.28;;;8.25;;
83929;SDS011;73959;52.130;5.584;2023-11-19T05:20:15;55.28;;;8.35;;
83929;SDS011;73959;52.130;5.584;2023-11-19T05:22:41;47.60;;;7.97;;
83929;SDS011;73959;52.130;5.584;2023-11-19T05:25:08;53.42;;;7.82;;
83929;SDS011;73959;52.130;5.584;2023-11-19T05:27:35;58.03;;;8.88;;
83929;SDS011;73959;52.130;5.584;2023-11-19T05:30:02;48.25;;;7.35;;
83929;SDS011;73959;52.130;5.584;2023-11-19T05:32:28;47.97;;;7.93;;
83929;SDS011;73959;52.130;5.584;2023-11-19T05:34:54;49.10;;;7.68;;
83929;SDS011;73959;52.130;5.584;2023-11-19T05:37:20;49.28;;;8.45;;
83929;SDS011;73959;52.130;5.584;2023-11-19T05:39:46;50.40;;;8.18;;
83929;SDS011;73959;52.130;5.584;2023-11-19T05:42:12;56.17;;;9.45;;
83929;SDS011;73959;52.130;5.584;2023-11-19T05:44:38;52.67;;;8.60;;
83929;SDS011;73959;52.130;5.584;2023-11-19T05:47:04;55.33;;;8.25;;
83929;SDS011;73959;52.130;5.584;2023-11-19T05:49:30;52.20;;;8.40;;
83929;SDS011;73959;52.130;5.584;2023-11-19T05:51:56;45.13;;;6.78;;
83929;SDS011;73959;52.130;5.584;2023-11-19T05:54:22;53.47;;;8.15;;
83929;SDS011;73959;52.130;5.584;2023-11-19T05:56:48;53.65;;;8.02;;
83929;SDS011;73959;52.130;5.584;2023-11-19T05:59:14;49.85;;;8.00;;
83929;SDS011;73959;52.130;5.584;2023-11-19T06:01:43;55.38;;;8.57;;
83929;SDS011;73959;52.130;5.584;2023-11-19T06:04:09;44.67;;;8.50;;
83929;SDS011;73959;52.130;5.584;2023-11-19T06:06:35;49.83;;;8.75;;
83929;SDS011;73959;52.130;5.584;2023-11-19T06:09:01;60.90;;;8.70;;
83929;SDS011;73959;52.130;5.584;2023-11-19T06:11:31;53.58;;;8.10;;
83929;SDS011;73959;52.130;5.584;2023-11-19T06:13:57;52.13;;;8.30;;
83929;SDS011;73959;52.130;5.584;2023-11-19T06:16:24;49.17;;;8.07;;
83929;SDS011;73959;52.130;5.584;2023-11-19T06:18:50;53.85;;;8.30;;
83929;SDS011;73959;52.130;5.584;2023-11-19T06:21:16;47.00;;;8.25;;
83929;SDS011;73959;52.130;5.584;2023-11-19T06:23:41;50.58;;;7.43;;
83929;SDS011;73959;52.130;5.584;2023-11-19T06:26:07;58.28;;;8.60;;
83929;SDS011;73959;52.130;5.584;2023-11-19T06:28:34;52.67;;;8.60;;
83929;SDS011;73959;52.130;5.584;2023-11-19T06:31:01;42.10;;;6.97;;
83929;SDS011;73959;52.130;5.584;2023-11-19T06:33:27;55.35;;;9.05;;
83929;SDS011;73959;52.130;5.584;2023-11-19T06:35:53;55.65;;;8.52;;
83929;SDS011;73959;52.130;5.584;2023-11-19T06:38:19;59.35;;;9.10;;
83929;SDS011;73959;52.130;5.584;2023-11-19T06:40:45;50.97;;;8.23;;
83929;SDS011;73959;52.130;5.584;2023-11-19T06:43:11;51.97;;;8.43;;
83929;SDS011;73959;52.130;5.584;2023-11-19T06:45:38;54.97;;;7.88;;
83929;SDS011;73959;52.130;5.584;2023-11-19T06:48:04;61.08;;;9.23;;
83929;SDS011;73959;52.130;5.584;2023-11-19T06:50:31;52.97;;;7.90;;
83929;SDS011;73959;52.130;5.584;2023-11-19T06:52:57;58.28;;;7.93;;
83929;SDS011;73959;52.130;5.584;2023-11-19T06:55:23;56.22;;;8.13;;
83929;SDS011;73959;52.130;5.584;2023-11-19T06:57:49;61.85;;;7.95;;
83929;SDS011;73959;52.130;5.584;2023-11-19T07:00:15;50.67;;;8.30;;
83929;SDS011;73959;52.130;5.584;2023-11-19T07:02:41;53.83;;;8.52;;
83929;SDS011;73959;52.130;5.584;2023-11-19T07:05:09;46.80;;;8.63;;
83929;SDS011;73959;52.130;5.584;2023-11-19T07:07:37;61.28;;;9.27;;
83929;SDS011;73959;52.130;5.584;2023-11-19T07:10:03;41.63;;;7.82;;
83929;SDS011;73959;52.130;5.584;2023-11-19T07:12:30;44.83;;;8.45;;
83929;SDS011;73959;52.130;5.584;2023-11-19T07:14:56;46.75;;;8.50;;
83929;SDS011;73959;52.130;5.584;2023-11-19T07:17:22;66.35;;;8.82;;
83929;SDS011;73959;52.130;5.584;2023-11-19T07:19:49;49.65;;;8.77;;
83929;SDS011;73959;52.130;5.584;2023-11-19T07:22:16;54.53;;;7.95;;
83929;SDS011;73959;52.130;5.584;2023-11-19T07:24:42;51.28;;;8.98;;
83929;SDS011;73959;52.130;5.584;2023-11-19T07:27:08;44.22;;;8.48;;
83929;SDS011;73959;52.130;5.584;2023-11-19T07:29:34;57.33;;;8.65;;
83929;SDS011;73959;52.130;5.584;2023-11-19T07:32:01;55.22;;;8.73;;
83929;SDS011;73959;52.130;5.584;2023-11-19T07:34:27;56.78;;;9.60;;
83929;SDS011;73959;52.130;5.584;2023-11-19T07:36:54;53.05;;;7.97;;
83929;SDS011;73959;52.130;5.584;2023-11-19T07:39:24;51.95;;;8.98;;
83929;SDS011;73959;52.130;5.584;2023-11-19T07:41:50;50.67;;;7.47;;
83929;SDS011;73959;52.130;5.584;2023-11-19T07:44:16;49.83;;;7.90;;
83929;SDS011;73959;52.130;5.584;2023-11-19T07:46:42;48.35;;;8.13;;
83929;SDS011;73959;52.130;5.584;2023-11-19T07:49:09;57.65;;;8.30;;
83929;SDS011;73959;52.130;5.584;2023-11-19T07:51:35;42.83;;;7.05;;
83929;SDS011;73959;52.130;5.584;2023-11-19T07:54:01;54.75;;;8.60;;
83929;SDS011;73959;52.130;5.584;2023-11-19T07:56:29;53.53;;;8.02;;
83929;SDS011;73959;52.130;5.584;2023-11-19T07:58:55;64.72;;;8.02;;
83929;SDS011;73959;52.130;5.584;2023-11-19T08:01:21;61.00;;;8.77;;
83929;SDS011;73959;52.130;5.584;2023-11-19T08:03:48;55.72;;;9.50;;
83929;SDS011;73959;52.130;5.584;2023-11-19T08:06:14;55.92;;;8.90;;
83929;SDS011;73959;52.130;5.584;2023-11-19T08:08:40;56.22;;;7.95;;
83929;SDS011;73959;52.130;5.584;2023-11-19T08:11:06;59.72;;;8.63;;
83929;SDS011;73959;52.130;5.584;2023-11-19T08:13:32;53.50;;;8.02;;
83929;SDS011;73959;52.130;5.584;2023-11-19T08:15:58;49.78;;;8.40;;
83929;SDS011;73959;52.130;5.584;2023-11-19T08:18:24;57.72;;;8.65;;
83929;SDS011;73959;52.130;5.584;2023-11-19T08:20:50;60.35;;;8.90;;
83929;SDS011;73959;52.130;5.584;2023-11-19T08:23:18;55.00;;;8.50;;
83929;SDS011;73959;52.130;5.584;2023-11-19T08:25:44;52.53;;;8.45;;
83929;SDS011;73959;52.130;5.584;2023-11-19T08:28:10;51.30;;;7.32;;
83929;SDS011;73959;52.130;5.584;2023-11-19T08:30:36;47.95;;;7.35;;
83929;SDS011;73959;52.130;5.584;2023-11-19T08:33:02;48.63;;;8.40;;
83929;SDS011;73959;52.130;5.584;2023-11-19T08:35:30;51.17;;;8.55;;
83929;SDS011;73959;52.130;5.584;2023-11-19T08:37:56;49.28;;;7.90;;
83929;SDS011;73959;52.130;5.584;2023-11-19T08:40:23;44.75;;;7.38;;
83929;SDS011;73959;52.130;5.584;2023-11-19T08:42:50;56.85;;;8.45;;
83929;SDS011;73959;52.130;5.584;2023-11-19T08:45:16;45.60;;;8.13;;
83929;SDS011;73959;52.130;5.584;2023-11-19T08:47:42;42.13;;;6.72;;
83929;SDS011;73959;52.130;5.584;2023-11-19T08:50:10;43.75;;;8.25;;
83929;SDS011;73959;52.130;5.584;2023-11-19T08:52:36;38.47;;;6.40;;
83929;SDS011;73959;52.130;5.584;2023-11-19T08:55:02;47.88;;;7.68;;
83929;SDS011;73959;52.130;5.584;2023-11-19T08:57:30;41.42;;;6.90;;
83929;SDS011;73959;52.130;5.584;2023-11-19T08:59:56;55.08;;;8.88;;
83929;SDS011;73959;52.130;5.584;2023-11-19T09:02:22;42.03;;;7.05;;
83929;SDS011;73959;52.130;5.584;2023-11-19T09:04:48;50.45;;;7.95;;
83929;SDS011;73959;52.130;5.584;2023-11-19T09:07:13;50.33;;;7.78;;
83929;SDS011;73959;52.130;5.584;2023-11-19T09:09:39;42.58;;;8.05;;
83929;SDS011;73959;52.130;5.584;2023-11-19T09:12:05;50.70;;;7.95;;
83929;SDS011;73959;52.130;5.584;2023-11-19T09:14:32;42.22;;;7.57;;
83929;SDS011;73959;52.130;5.584;2023-11-19T09:16:58;46.50;;;8.25;;
83929;SDS011;73959;52.130;5.584;2023-11-19T09:19:24;46.60;;;8.05;;
83929;SDS011;73959;52.130;5.584;2023-11-19T09:21:51;51.47;;;7.78;;
83929;SDS011;73959;52.130;5.584;2023-11-19T09:24:18;46.05;;;7.05;;
83929;SDS011;73959;52.130;5.584;2023-11-19T09:26:43;50.90;;;6.90;;
83929;SDS011;73959;52.130;5.584;2023-11-19T09:29:10;51.15;;;7.47;;
83929;SDS011;73959;52.130;5.584;2023-11-19T09:31:37;43.90;;;7.47;;
83929;SDS011;73959;52.130;5.584;2023-11-19T09:34:03;43.65;;;7.15;;
83929;SDS011;73959;52.130;5.584;2023-11-19T09:36:30;36.67;;;6.47;;
83929;SDS011;73959;52.130;5.584;2023-11-19T09:38:56;50.42;;;8.07;;
83929;SDS011;73959;52.130;5.584;2023-11-19T09:41:23;41.72;;;7.07;;
83929;SDS011;73959;52.130;5.584;2023-11-19T09:43:50;39.45;;;7.50;;
83929;SDS011;73959;52.130;5.584;2023-11-19T09:46:16;50.58;;;7.45;;
83929;SDS011;73959;52.130;5.584;2023-11-19T09:48:43;41.03;;;7.07;;
83929;SDS011;73959;52.130;5.584;2023-11-19T09:51:10;44.22;;;7.40;;
83929;SDS011;73959;52.130;5.584;2023-11-19T09:53:36;41.40;;;7.13;;
83929;SDS011;73959;52.130;5.584;2023-11-19T09:56:03;42.33;;;7.65;;
83929;SDS011;73959;52.130;5.584;2023-11-19T09:58:30;46.70;;;7.53;;
83929;SDS011;73959;52.130;5.584;2023-11-19T10:00:56;46.50;;;8.00;;
83929;SDS011;73959;52.130;5.584;2023-11-19T10:03:29;47.70;;;8.48;;
83929;SDS011;73959;52.130;5.584;2023-11-19T10:05:57;39.72;;;7.80;;
83929;SDS011;73959;52.130;5.584;2023-11-19T10:08:23;47.95;;;6.65;;
83929;SDS011;73959;52.130;5.584;2023-11-19T10:10:49;46.65;;;7.18;;
83929;SDS011;73959;52.130;5.584;2023-11-19T10:13:16;46.63;;;6.97;;
83929;SDS011;73959;52.130;5.584;2023-11-19T10:15:43;43.97;;;7.78;;
83929;SDS011;73959;52.130;5.584;2023-11-19T10:18:09;31.60;;;5.90;;
83929;SDS011;73959;52.130;5.584;2023-11-19T10:20:35;43.83;;;6.82;;
83929;SDS011;73959;52.130;5.584;2023-11-19T10:23:02;37.65;;;6.03;;
83929;SDS011;73959;52.130;5.584;2023-11-19T10:25:28;42.33;;;7.45;;
83929;SDS011;73959;52.130;5.584;2023-11-19T10:27:55;41.60;;;8.07;;
83929;SDS011;73959;52.130;5.584;2023-11-19T10:30:25;40.28;;;6.80;;
83929;SDS011;73959;52.130;5.584;2023-11-19T10:33:33;43.55;;;7.85;;
83929;SDS011;73959;52.130;5.584;2023-11-19T10:38:18;40.20;;;6.65;;
83929;SDS011;73959;52.130;5.584;2023-11-19T10:40:44;35.83;;;6.10;;
83929;SDS011;73959;52.130;5.584;2023-11-19T10:43:10;39.65;;;6.55;;
83929;SDS011;73959;52.130;5.584;2023-11-19T10:45:37;42.75;;;7.18;;
83929;SDS011;73959;52.130;5.584;2023-11-19T10:48:03;47.85;;;7.90;;
83929;SDS011;73959;52.130;5.584;2023-11-19T10:50:36;40.10;;;7.45;;
83929;SDS011;73959;52.130;5.584;2023-11-19T10:53:02;33.53;;;6.93;;
83929;SDS011;73959;52.130;5.584;2023-11-19T10:55:32;46.97;;;7.28;;
83929;SDS011;73959;52.130;5.584;2023-11-19T10:58:03;45.13;;;7.95;;
83929;SDS011;73959;52.130;5.584;2023-11-19T11:00:30;41.10;;;7.50;;
83929;SDS011;73959;52.130;5.584;2023-11-19T11:03:01;48.10;;;7.93;;
83929;SDS011;73959;52.130;5.584;2023-11-19T11:05:28;37.83;;;6.22;;
83929;SDS011;73959;52.130;5.584;2023-11-19T11:07:57;38.45;;;6.82;;
83929;SDS011;73959;52.130;5.584;2023-11-19T11:10:25;33.88;;;6.40;;
83929;SDS011;73959;52.130;5.584;2023-11-19T11:12:51;44.35;;;7.43;;
83929;SDS011;73959;52.130;5.584;2023-11-19T11:15:24;41.35;;;6.57;;
83929;SDS011;73959;52.130;5.584;2023-11-19T11:17:54;40.45;;;7.45;;
83929;SDS011;73959;52.130;5.584;2023-11-19T11:20:23;40.47;;;7.53;;
83929;SDS011;73959;52.130;5.584;2023-11-19T11:30:38;41.10;;;7.10;;
83929;SDS011;73959;52.130;5.584;2023-11-19T11:33:10;43.63;;;7.60;;
83929;SDS011;73959;52.130;5.584;2023-11-19T11:35:49;38.78;;;7.35;;
83929;SDS011;73959;52.130;5.584;2023-11-19T11:38:21;45.92;;;7.50;;
83929;SDS011;73959;52.130;5.584;2023-11-19T11:43:50;39.22;;;6.80;;
83929;SDS011;73959;52.130;5.584;2023-11-19T11:51:57;33.53;;;6.47;;
83929;SDS011;73959;52.130;5.584;2023-11-19T11:59:36;43.78;;;7.57;;
83929;SDS011;73959;52.130;5.584;2023-11-19T12:02:03;33.45;;;6.35;;
83929;SDS011;73959;52.130;5.584;2023-11-19T12:04:29;38.80;;;8.32;;
83929;SDS011;73959;52.130;5.584;2023-11-19T12:07:14;43.15;;;8.60;;
83929;SDS011;73959;52.130;5.584;2023-11-19T12:09:42;42.40;;;7.47;;
83929;SDS011;73959;52.130;5.584;2023-11-19T12:12:19;40.13;;;8.40;;
83929;SDS011;73959;52.130;5.584;2023-11-19T12:14:59;36.53;;;7.07;;
83929;SDS011;73959;52.130;5.584;2023-11-19T12:17:47;29.70;;;6.10;;
83929;SDS011;73959;52.130;5.584;2023-11-19T12:20:17;38.42;;;6.28;;
83929;SDS011;73959;52.130;5.584;2023-11-19T12:22:44;31.50;;;6.53;;
83929;SDS011;73959;52.130;5.584;2023-11-19T12:25:11;42.00;;;7.20;;
83929;SDS011;73959;52.130;5.584;2023-11-19T12:27:47;37.78;;;7.40;;
83929;SDS011;73959;52.130;5.584;2023-11-19T12:30:22;33.25;;;6.55;;
83929;SDS011;73959;52.130;5.584;2023-11-19T12:32:51;30.58;;;5.55;;
83929;SDS011;73959;52.130;5.584;2023-11-19T12:35:18;29.33;;;5.22;;
83929;SDS011;73959;52.130;5.584;2023-11-19T12:37:45;26.27;;;5.63;;
83929;SDS011;73959;52.130;5.584;2023-11-19T12:40:12;31.67;;;5.78;;
83929;SDS011;73959;52.130;5.584;2023-11-19T12:42:38;27.25;;;5.00;;
83929;SDS011;73959;52.130;5.584;2023-11-19T12:45:04;35.38;;;6.68;;
83929;SDS011;73959;52.130;5.584;2023-11-19T12:47:30;39.17;;;5.80;;
83929;SDS011;73959;52.130;5.584;2023-11-19T12:49:57;26.38;;;5.57;;
83929;SDS011;73959;52.130;5.584;2023-11-19T12:52:22;26.65;;;6.30;;
83929;SDS011;73959;52.130;5.584;2023-11-19T12:54:49;33.03;;;6.25;;
83929;SDS011;73959;52.130;5.584;2023-11-19T12:57:16;30.13;;;5.20;;
83929;SDS011;73959;52.130;5.584;2023-11-19T12:59:53;32.72;;;5.88;;
83929;SDS011;73959;52.130;5.584;2023-11-19T13:02:20;34.53;;;6.68;;
83929;SDS011;73959;52.130;5.584;2023-11-19T13:04:46;34.53;;;5.68;;
83929;SDS011;73959;52.130;5.584;2023-11-19T13:07:12;37.97;;;6.15;;
83929;SDS011;73959;52.130;5.584;2023-11-19T13:09:38;33.35;;;6.60;;
83929;SDS011;73959;52.130;5.584;2023-11-19T13:12:14;37.92;;;6.90;;
83929;SDS011;73959;52.130;5.584;2023-11-19T13:14:40;36.10;;;8.20;;
83929;SDS011;73959;52.130;5.584;2023-11-19T13:17:07;33.58;;;5.60;;
83929;SDS011;73959;52.130;5.584;2023-11-19T13:19:33;37.38;;;6.20;;
83929;SDS011;73959;52.130;5.584;2023-11-19T13:21:59;33.63;;;6.13;;
83929;SDS011;73959;52.130;5.584;2023-11-19T13:24:25;33.08;;;5.93;;
83929;SDS011;73959;52.130;5.584;2023-11-19T13:26:51;30.25;;;5.97;;
83929;SDS011;73959;52.130;5.584;2023-11-19T13:29:17;24.17;;;5.13;;
83929;SDS011;73959;52.130;5.584;2023-11-19T13:31:43;35.78;;;6.00;;
83929;SDS011;73959;52.130;5.584;2023-11-19T13:34:09;29.08;;;5.10;;
83929;SDS011;73959;52.130;5.584;2023-11-19T13:36:35;34.95;;;6.57;;
83929;SDS011;73959;52.130;5.584;2023-11-19T13:39:01;38.47;;;8.25;;
83929;SDS011;73959;52.130;5.584;2023-11-19T13:41:27;37.25;;;6.50;;
83929;SDS011;73959;52.130;5.584;2023-11-19T13:43:53;39.72;;;6.45;;
83929;SDS011;73959;52.130;5.584;2023-11-19T13:46:20;44.47;;;7.13;;
83929;SDS011;73959;52.130;5.584;2023-11-19T13:48:46;33.63;;;6.22;;
83929;SDS011;73959;52.130;5.584;2023-11-19T13:51:14;31.60;;;7.43;;
83929;SDS011;73959;52.130;5.584;2023-11-19T13:53:40;36.28;;;7.30;;
83929;SDS011;73959;52.130;5.584;2023-11-19T13:56:06;40.15;;;9.98;;
83929;SDS011;73959;52.130;5.584;2023-11-19T13:58:33;32.90;;;6.70;;
83929;SDS011;73959;52.130;5.584;2023-11-19T14:01:00;46.22;;;10.15;;
83929;SDS011;73959;52.130;5.584;2023-11-19T14:03:26;35.20;;;9.05;;
83929;SDS011;73959;52.130;5.584;2023-11-19T14:05:52;48.33;;;10.43;;
83929;SDS011;73959;52.130;5.584;2023-11-19T14:08:20;37.13;;;7.43;;
83929;SDS011;73959;52.130;5.584;2023-11-19T14:10:46;28.40;;;6.30;;
83929;SDS011;73959;52.130;5.584;2023-11-19T14:13:12;32.75;;;7.07;;
83929;SDS011;73959;52.130;5.584;2023-11-19T14:15:40;33.67;;;6.03;;
83929;SDS011;73959;52.130;5.584;2023-11-19T14:18:07;33.92;;;6.65;;
83929;SDS011;73959;52.130;5.584;2023-11-19T14:20:33;41.65;;;9.02;;
83929;SDS011;73959;52.130;5.584;2023-11-19T14:23:00;34.75;;;6.88;;
83929;SDS011;73959;52.130;5.584;2023-11-19T14:25:27;30.60;;;6.70;;
83929;SDS011;73959;52.130;5.584;2023-11-19T14:27:53;31.52;;;6.95;;
83929;SDS011;73959;52.130;5.584;2023-11-19T14:30:19;40.22;;;10.05;;
83929;SDS011;73959;52.130;5.584;2023-11-19T14:32:45;33.65;;;7.75;;
83929;SDS011;73959;52.130;5.584;2023-11-19T14:35:12;34.72;;;7.00;;
83929;SDS011;73959;52.130;5.584;2023-11-19T14:37:38;33.38;;;6.82;;
83929;SDS011;73959;52.130;5.584;2023-11-19T14:40:04;33.58;;;6.82;;
83929;SDS011;73959;52.130;5.584;2023-11-19T14:42:32;33.22;;;6.38;;
83929;SDS011;73959;52.130;5.584;2023-11-19T14:44:58;30.38;;;6.40;;
83929;SDS011;73959;52.130;5.584;2023-11-19T14:47:24;30.55;;;6.70;;
83929;SDS011;73959;52.130;5.584;2023-11-19T14:49:50;27.38;;;5.03;;
83929;SDS011;73959;52.130;5.584;2023-11-19T14:52:16;28.00;;;5.78;;
83929;SDS011;73959;52.130;5.584;2023-11-19T14:54:42;33.58;;;6.78;;
83929;SDS011;73959;52.130;5.584;2023-11-19T14:57:08;36.22;;;6.63;;